sensor_id;sensor_type;location;lat;lon;timestamp;P1;durP1;ratioP1;P2;durP2;ratioP2
10277;SDS011;5184;51.376;7.148;2024-03-02T00:00:15;2.73;;;1.70;;
10277;SDS011;5184;51.376;7.148;2024-03-02T00:02:42;2.03;;;1.83;;
10277;SDS011;5184;51.376;7.148;2024-03-02T00:05:11;3.57;;;2.20;;
10277;SDS011;5184;51.376;7.148;2024-03-02T00:07:38;2.07;;;1.70;;
10277;SDS011;5184;51.376;7.148;2024-03-02T00:10:05;3.57;;;1.77;;
10277;SDS011;5184;51.376;7.148;2024-03-02T00:12:30;2.70;;;1.67;;
10277;SDS011;5184;51.376;7.148;2024-03-02T00:14:57;3.47;;;1.87;;
10277;SDS011;5184;51.376;7.148;2024-03-02T00:17:24;2.80;;;1.60;;
10277;SDS011;5184;51.376;7.148;2024-03-02T00:19:52;1.67;;;1.40;;
10277;SDS011;5184;51.376;7.148;2024-03-02T00:22:20;2.07;;;1.37;;
10277;SDS011;5184;51.376;7.148;2024-03-02T00:24:47;2.43;;;1.70;;
10277;SDS011;5184;51.376;7.148;2024-03-02T00:27:14;4.57;;;1.80;;
10277;SDS011;5184;51.376;7.148;2024-03-02T00:29:40;1.90;;;1.70;;
10277;SDS011;5184;51.376;7.148;2024-03-02T00:32:12;2.33;;;1.70;;
10277;SDS011;5184;51.376;7.148;2024-03-02T00:34:39;1.80;;;1.40;;
10277;SDS011;5184;51.376;7.148;2024-03-02T00:37:05;3.40;;;1.67;;
10277;SDS011;5184;51.376;7.148;2024-03-02T00:39:32;2.00;;;1.30;;
10277;SDS011;5184;51.376;7.148;2024-03-02T00:41:59;2.03;;;1.30;;
10277;SDS011;5184;51.376;7.148;2024-03-02T00:44:26;2.10;;;1.23;;
10277;SDS011;5184;51.376;7.148;2024-03-02T00:46:53;1.87;;;1.40;;
10277;SDS011;5184;51.376;7.148;2024-03-02T00:49:21;2.90;;;1.43;;
10277;SDS011;5184;51.376;7.148;2024-03-02T00:51:49;1.70;;;1.30;;
10277;SDS011;5184;51.376;7.148;2024-03-02T00:54:18;1.63;;;1.43;;
10277;SDS011;5184;51.376;7.148;2024-03-02T00:56:42;2.90;;;1.60;;
10277;SDS011;5184;51.376;7.148;2024-03-02T00:59:09;1.90;;;1.47;;
10277;SDS011;5184;51.376;7.148;2024-03-02T01:01:35;3.13;;;1.47;;
10277;SDS011;5184;51.376;7.148;2024-03-02T01:04:02;2.53;;;1.40;;
10277;SDS011;5184;51.376;7.148;2024-03-02T01:06:28;1.30;;;1.20;;
10277;SDS011;5184;51.376;7.148;2024-03-02T01:08:55;3.53;;;1.50;;
10277;SDS011;5184;51.376;7.148;2024-03-02T01:11:22;1.83;;;1.30;;
10277;SDS011;5184;51.376;7.148;2024-03-02T01:13:49;2.13;;;1.70;;
10277;SDS011;5184;51.376;7.148;2024-03-02T01:16:16;1.93;;;1.40;;
10277;SDS011;5184;51.376;7.148;2024-03-02T01:18:44;2.03;;;1.33;;
10277;SDS011;5184;51.376;7.148;2024-03-02T01:21:11;1.90;;;1.13;;
10277;SDS011;5184;51.376;7.148;2024-03-02T01:23:38;2.30;;;1.20;;
10277;SDS011;5184;51.376;7.148;2024-03-02T01:26:06;2.50;;;1.27;;
10277;SDS011;5184;51.376;7.148;2024-03-02T01:28:33;1.67;;;1.30;;
10277;SDS011;5184;51.376;7.148;2024-03-02T01:31:00;1.50;;;1.30;;
10277;SDS011;5184;51.376;7.148;2024-03-02T01:33:28;1.60;;;1.50;;
10277;SDS011;5184;51.376;7.148;2024-03-02T01:35:55;1.77;;;1.27;;
10277;SDS011;5184;51.376;7.148;2024-03-02T01:38:22;2.47;;;1.40;;
10277;SDS011;5184;51.376;7.148;2024-03-02T01:40:48;1.50;;;1.30;;
10277;SDS011;5184;51.376;7.148;2024-03-02T01:43:15;2.07;;;1.50;;
10277;SDS011;5184;51.376;7.148;2024-03-02T01:45:42;2.07;;;1.30;;
10277;SDS011;5184;51.376;7.148;2024-03-02T01:48:09;1.70;;;1.37;;
10277;SDS011;5184;51.376;7.148;2024-03-02T01:50:35;1.77;;;1.30;;
10277;SDS011;5184;51.376;7.148;2024-03-02T01:53:02;1.67;;;1.30;;
10277;SDS011;5184;51.376;7.148;2024-03-02T01:55:29;2.33;;;1.30;;
10277;SDS011;5184;51.376;7.148;2024-03-02T01:57:55;1.40;;;1.20;;
10277;SDS011;5184;51.376;7.148;2024-03-02T02:00:22;1.40;;;1.30;;
10277;SDS011;5184;51.376;7.148;2024-03-02T02:02:49;1.73;;;1.20;;
10277;SDS011;5184;51.376;7.148;2024-03-02T02:05:17;1.30;;;1.10;;
10277;SDS011;5184;51.376;7.148;2024-03-02T02:07:44;1.90;;;1.20;;
10277;SDS011;5184;51.376;7.148;2024-03-02T02:10:11;1.40;;;1.20;;
10277;SDS011;5184;51.376;7.148;2024-03-02T02:12:39;2.20;;;1.40;;
10277;SDS011;5184;51.376;7.148;2024-03-02T02:15:23;1.80;;;1.27;;
10277;SDS011;5184;51.376;7.148;2024-03-02T02:17:49;2.03;;;1.33;;
10277;SDS011;5184;51.376;7.148;2024-03-02T02:20:16;1.60;;;1.10;;
10277;SDS011;5184;51.376;7.148;2024-03-02T02:25:22;3.47;;;1.40;;
10277;SDS011;5184;51.376;7.148;2024-03-02T02:27:49;2.07;;;1.27;;
10277;SDS011;5184;51.376;7.148;2024-03-02T02:30:19;1.60;;;1.30;;
10277;SDS011;5184;51.376;7.148;2024-03-02T02:32:46;3.27;;;1.40;;
10277;SDS011;5184;51.376;7.148;2024-03-02T02:35:14;1.60;;;1.20;;
10277;SDS011;5184;51.376;7.148;2024-03-02T02:37:41;1.33;;;1.17;;
10277;SDS011;5184;51.376;7.148;2024-03-02T02:40:09;1.83;;;1.40;;
10277;SDS011;5184;51.376;7.148;2024-03-02T02:42:36;2.20;;;1.37;;
10277;SDS011;5184;51.376;7.148;2024-03-02T02:45:03;1.77;;;1.30;;
10277;SDS011;5184;51.376;7.148;2024-03-02T02:47:30;1.20;;;1.10;;
10277;SDS011;5184;51.376;7.148;2024-03-02T02:49:56;1.67;;;1.30;;
10277;SDS011;5184;51.376;7.148;2024-03-02T02:52:23;2.10;;;1.40;;
10277;SDS011;5184;51.376;7.148;2024-03-02T02:54:50;3.47;;;1.40;;
10277;SDS011;5184;51.376;7.148;2024-03-02T02:57:18;2.90;;;1.03;;
10277;SDS011;5184;51.376;7.148;2024-03-02T02:59:45;1.63;;;1.20;;
10277;SDS011;5184;51.376;7.148;2024-03-02T03:02:12;2.47;;;1.20;;
10277;SDS011;5184;51.376;7.148;2024-03-02T03:04:40;2.00;;;1.30;;
10277;SDS011;5184;51.376;7.148;2024-03-02T03:07:07;2.00;;;1.43;;
10277;SDS011;5184;51.376;7.148;2024-03-02T03:09:37;2.87;;;1.40;;
10277;SDS011;5184;51.376;7.148;2024-03-02T03:12:01;1.60;;;1.30;;
10277;SDS011;5184;51.376;7.148;2024-03-02T03:14:28;3.33;;;1.53;;
10277;SDS011;5184;51.376;7.148;2024-03-02T03:16:54;1.60;;;1.20;;
10277;SDS011;5184;51.376;7.148;2024-03-02T03:19:21;1.10;;;1.00;;
10277;SDS011;5184;51.376;7.148;2024-03-02T03:21:47;3.23;;;1.50;;
10277;SDS011;5184;51.376;7.148;2024-03-02T03:24:15;2.37;;;1.57;;
10277;SDS011;5184;51.376;7.148;2024-03-02T03:26:41;1.60;;;1.03;;
10277;SDS011;5184;51.376;7.148;2024-03-02T03:29:08;2.00;;;1.00;;
10277;SDS011;5184;51.376;7.148;2024-03-02T03:31:35;1.80;;;1.30;;
10277;SDS011;5184;51.376;7.148;2024-03-02T03:34:03;1.57;;;1.20;;
10277;SDS011;5184;51.376;7.148;2024-03-02T03:36:30;2.17;;;1.07;;
10277;SDS011;5184;51.376;7.148;2024-03-02T03:38:57;2.30;;;1.63;;
10277;SDS011;5184;51.376;7.148;2024-03-02T03:41:25;1.53;;;1.30;;
10277;SDS011;5184;51.376;7.148;2024-03-02T03:43:52;2.03;;;1.10;;
10277;SDS011;5184;51.376;7.148;2024-03-02T03:46:19;1.13;;;1.03;;
10277;SDS011;5184;51.376;7.148;2024-03-02T03:48:45;1.40;;;1.30;;
10277;SDS011;5184;51.376;7.148;2024-03-02T03:51:12;1.90;;;1.33;;
10277;SDS011;5184;51.376;7.148;2024-03-02T03:53:39;2.07;;;1.10;;
10277;SDS011;5184;51.376;7.148;2024-03-02T03:56:06;2.00;;;1.30;;
10277;SDS011;5184;51.376;7.148;2024-03-02T03:58:32;1.30;;;1.20;;
10277;SDS011;5184;51.376;7.148;2024-03-02T04:00:59;2.03;;;1.20;;
10277;SDS011;5184;51.376;7.148;2024-03-02T04:03:26;1.83;;;1.20;;
10277;SDS011;5184;51.376;7.148;2024-03-02T04:05:53;1.43;;;1.10;;
10277;SDS011;5184;51.376;7.148;2024-03-02T04:08:20;2.03;;;1.33;;
10277;SDS011;5184;51.376;7.148;2024-03-02T04:10:48;1.10;;;1.00;;
10277;SDS011;5184;51.376;7.148;2024-03-02T04:13:15;2.00;;;1.20;;
10277;SDS011;5184;51.376;7.148;2024-03-02T04:15:42;1.50;;;1.40;;
10277;SDS011;5184;51.376;7.148;2024-03-02T04:18:10;2.10;;;1.30;;
10277;SDS011;5184;51.376;7.148;2024-03-02T04:20:36;1.57;;;1.20;;
10277;SDS011;5184;51.376;7.148;2024-03-02T04:23:03;2.67;;;1.63;;
10277;SDS011;5184;51.376;7.148;2024-03-02T04:25:29;1.83;;;1.40;;
10277;SDS011;5184;51.376;7.148;2024-03-02T04:27:56;1.83;;;1.10;;
10277;SDS011;5184;51.376;7.148;2024-03-02T04:30:23;1.90;;;1.20;;
10277;SDS011;5184;51.376;7.148;2024-03-02T04:32:49;1.50;;;1.10;;
10277;SDS011;5184;51.376;7.148;2024-03-02T04:35:16;2.30;;;1.27;;
10277;SDS011;5184;51.376;7.148;2024-03-02T04:37:42;1.60;;;1.20;;
10277;SDS011;5184;51.376;7.148;2024-03-02T04:40:10;2.33;;;1.23;;
10277;SDS011;5184;51.376;7.148;2024-03-02T04:42:37;2.13;;;1.27;;
10277;SDS011;5184;51.376;7.148;2024-03-02T04:45:04;2.13;;;1.27;;
10277;SDS011;5184;51.376;7.148;2024-03-02T04:47:30;1.20;;;1.10;;
10277;SDS011;5184;51.376;7.148;2024-03-02T04:49:58;1.30;;;1.20;;
10277;SDS011;5184;51.376;7.148;2024-03-02T04:52:24;1.23;;;1.07;;
10277;SDS011;5184;51.376;7.148;2024-03-02T04:54:51;3.10;;;1.40;;
10277;SDS011;5184;51.376;7.148;2024-03-02T04:57:33;1.33;;;1.23;;
10277;SDS011;5184;51.376;7.148;2024-03-02T05:00:00;2.20;;;1.23;;
10277;SDS011;5184;51.376;7.148;2024-03-02T05:02:28;1.17;;;1.07;;
10277;SDS011;5184;51.376;7.148;2024-03-02T05:04:56;1.53;;;1.13;;
10277;SDS011;5184;51.376;7.148;2024-03-02T05:07:23;2.70;;;1.60;;
10277;SDS011;5184;51.376;7.148;2024-03-02T05:09:50;1.90;;;1.50;;
10277;SDS011;5184;51.376;7.148;2024-03-02T05:12:18;2.00;;;1.60;;
10277;SDS011;5184;51.376;7.148;2024-03-02T05:15:03;3.70;;;1.60;;
10277;SDS011;5184;51.376;7.148;2024-03-02T05:17:31;1.67;;;1.57;;
10277;SDS011;5184;51.376;7.148;2024-03-02T05:19:57;1.83;;;1.43;;
10277;SDS011;5184;51.376;7.148;2024-03-02T05:22:25;2.77;;;1.40;;
10277;SDS011;5184;51.376;7.148;2024-03-02T05:24:52;3.23;;;1.77;;
10277;SDS011;5184;51.376;7.148;2024-03-02T05:27:19;2.00;;;1.50;;
10277;SDS011;5184;51.376;7.148;2024-03-02T05:29:47;2.77;;;1.40;;
10277;SDS011;5184;51.376;7.148;2024-03-02T05:32:14;2.10;;;1.90;;
10277;SDS011;5184;51.376;7.148;2024-03-02T05:34:41;2.20;;;1.60;;
10277;SDS011;5184;51.376;7.148;2024-03-02T05:37:09;2.20;;;1.50;;
10277;SDS011;5184;51.376;7.148;2024-03-02T05:39:35;1.60;;;1.50;;
10277;SDS011;5184;51.376;7.148;2024-03-02T05:42:02;1.80;;;1.50;;
10277;SDS011;5184;51.376;7.148;2024-03-02T05:44:29;1.80;;;1.60;;
10277;SDS011;5184;51.376;7.148;2024-03-02T05:46:56;2.93;;;1.77;;
10277;SDS011;5184;51.376;7.148;2024-03-02T05:49:23;2.03;;;1.70;;
10277;SDS011;5184;51.376;7.148;2024-03-02T05:51:51;2.90;;;1.77;;
10277;SDS011;5184;51.376;7.148;2024-03-02T05:54:18;2.43;;;1.60;;
10277;SDS011;5184;51.376;7.148;2024-03-02T05:56:45;2.00;;;1.80;;
10277;SDS011;5184;51.376;7.148;2024-03-02T05:59:14;4.40;;;1.90;;
10277;SDS011;5184;51.376;7.148;2024-03-02T06:01:42;1.87;;;1.73;;
10277;SDS011;5184;51.376;7.148;2024-03-02T06:04:09;2.47;;;1.77;;
10277;SDS011;5184;51.376;7.148;2024-03-02T06:06:36;2.43;;;1.93;;
10277;SDS011;5184;51.376;7.148;2024-03-02T06:09:03;3.03;;;1.70;;
10277;SDS011;5184;51.376;7.148;2024-03-02T06:11:34;3.97;;;1.90;;
10277;SDS011;5184;51.376;7.148;2024-03-02T06:14:01;3.13;;;2.10;;
10277;SDS011;5184;51.376;7.148;2024-03-02T06:16:28;3.83;;;1.97;;
10277;SDS011;5184;51.376;7.148;2024-03-02T06:18:56;2.77;;;1.90;;
10277;SDS011;5184;51.376;7.148;2024-03-02T06:21:24;2.60;;;2.10;;
10277;SDS011;5184;51.376;7.148;2024-03-02T06:23:50;3.60;;;2.20;;
10277;SDS011;5184;51.376;7.148;2024-03-02T06:26:17;3.33;;;2.30;;
10277;SDS011;5184;51.376;7.148;2024-03-02T06:28:45;2.73;;;2.00;;
10277;SDS011;5184;51.376;7.148;2024-03-02T06:31:11;3.17;;;2.40;;
10277;SDS011;5184;51.376;7.148;2024-03-02T06:33:38;3.13;;;2.40;;
10277;SDS011;5184;51.376;7.148;2024-03-02T06:36:05;3.30;;;2.37;;
10277;SDS011;5184;51.376;7.148;2024-03-02T06:38:31;3.67;;;2.60;;
10277;SDS011;5184;51.376;7.148;2024-03-02T06:40:58;3.17;;;2.30;;
10277;SDS011;5184;51.376;7.148;2024-03-02T06:43:24;2.80;;;2.30;;
10277;SDS011;5184;51.376;7.148;2024-03-02T06:45:51;3.20;;;2.30;;
10277;SDS011;5184;51.376;7.148;2024-03-02T06:48:18;4.77;;;2.70;;
10277;SDS011;5184;51.376;7.148;2024-03-02T06:50:44;3.93;;;2.17;;
10277;SDS011;5184;51.376;7.148;2024-03-02T06:53:11;2.90;;;2.33;;
10277;SDS011;5184;51.376;7.148;2024-03-02T06:55:37;3.17;;;2.13;;
10277;SDS011;5184;51.376;7.148;2024-03-02T06:58:05;3.07;;;2.10;;
10277;SDS011;5184;51.376;7.148;2024-03-02T07:00:32;3.10;;;2.30;;
10277;SDS011;5184;51.376;7.148;2024-03-02T07:02:59;4.43;;;2.47;;
10277;SDS011;5184;51.376;7.148;2024-03-02T07:05:26;3.80;;;2.50;;
10277;SDS011;5184;51.376;7.148;2024-03-02T07:07:53;3.50;;;2.57;;
10277;SDS011;5184;51.376;7.148;2024-03-02T07:10:19;5.17;;;2.80;;
10277;SDS011;5184;51.376;7.148;2024-03-02T07:12:47;3.97;;;2.47;;
10277;SDS011;5184;51.376;7.148;2024-03-02T07:15:14;3.37;;;2.37;;
10277;SDS011;5184;51.376;7.148;2024-03-02T07:17:59;3.03;;;2.43;;
10277;SDS011;5184;51.376;7.148;2024-03-02T07:20:27;3.37;;;2.50;;
10277;SDS011;5184;51.376;7.148;2024-03-02T07:22:54;3.80;;;2.70;;
10277;SDS011;5184;51.376;7.148;2024-03-02T07:25:21;4.07;;;2.90;;
10277;SDS011;5184;51.376;7.148;2024-03-02T07:27:48;3.57;;;2.27;;
10277;SDS011;5184;51.376;7.148;2024-03-02T07:30:15;5.20;;;2.60;;
10277;SDS011;5184;51.376;7.148;2024-03-02T07:32:42;3.47;;;2.27;;
10277;SDS011;5184;51.376;7.148;2024-03-02T07:35:09;4.00;;;2.80;;
10277;SDS011;5184;51.376;7.148;2024-03-02T07:37:35;3.60;;;2.10;;
10277;SDS011;5184;51.376;7.148;2024-03-02T07:40:02;5.73;;;2.50;;
10277;SDS011;5184;51.376;7.148;2024-03-02T07:42:29;4.10;;;2.60;;
10277;SDS011;5184;51.376;7.148;2024-03-02T07:44:55;3.30;;;2.43;;
10277;SDS011;5184;51.376;7.148;2024-03-02T07:47:23;3.23;;;2.37;;
10277;SDS011;5184;51.376;7.148;2024-03-02T07:49:50;3.27;;;2.37;;
10277;SDS011;5184;51.376;7.148;2024-03-02T07:52:17;3.23;;;2.30;;
10277;SDS011;5184;51.376;7.148;2024-03-02T07:54:45;2.73;;;2.10;;
10277;SDS011;5184;51.376;7.148;2024-03-02T07:57:12;2.83;;;2.10;;
10277;SDS011;5184;51.376;7.148;2024-03-02T07:59:39;3.40;;;2.90;;
10277;SDS011;5184;51.376;7.148;2024-03-02T08:02:06;4.17;;;2.27;;
10277;SDS011;5184;51.376;7.148;2024-03-02T08:04:33;3.13;;;2.30;;
10277;SDS011;5184;51.376;7.148;2024-03-02T08:06:59;4.00;;;2.57;;
10277;SDS011;5184;51.376;7.148;2024-03-02T08:09:27;3.53;;;2.13;;
10277;SDS011;5184;51.376;7.148;2024-03-02T08:11:53;2.97;;;2.00;;
10277;SDS011;5184;51.376;7.148;2024-03-02T08:14:20;4.23;;;2.00;;
10277;SDS011;5184;51.376;7.148;2024-03-02T08:16:47;3.07;;;2.20;;
10277;SDS011;5184;51.376;7.148;2024-03-02T08:19:13;3.50;;;2.10;;
10277;SDS011;5184;51.376;7.148;2024-03-02T08:21:40;2.63;;;1.90;;
10277;SDS011;5184;51.376;7.148;2024-03-02T08:24:06;3.67;;;2.10;;
10277;SDS011;5184;51.376;7.148;2024-03-02T08:26:33;2.63;;;1.80;;
10277;SDS011;5184;51.376;7.148;2024-03-02T08:29:00;2.70;;;2.30;;
10277;SDS011;5184;51.376;7.148;2024-03-02T08:31:28;3.33;;;1.93;;
10277;SDS011;5184;51.376;7.148;2024-03-02T08:33:54;2.67;;;1.93;;
10277;SDS011;5184;51.376;7.148;2024-03-02T08:36:22;3.23;;;1.90;;
10277;SDS011;5184;51.376;7.148;2024-03-02T08:38:49;2.20;;;1.80;;
10277;SDS011;5184;51.376;7.148;2024-03-02T08:41:16;3.80;;;1.90;;
10277;SDS011;5184;51.376;7.148;2024-03-02T08:43:44;2.27;;;1.70;;
10277;SDS011;5184;51.376;7.148;2024-03-02T08:46:11;2.53;;;1.80;;
10277;SDS011;5184;51.376;7.148;2024-03-02T08:48:38;3.03;;;1.90;;
10277;SDS011;5184;51.376;7.148;2024-03-02T08:51:06;1.80;;;1.60;;
10277;SDS011;5184;51.376;7.148;2024-03-02T08:53:32;2.73;;;1.70;;
10277;SDS011;5184;51.376;7.148;2024-03-02T08:55:59;2.13;;;1.60;;
10277;SDS011;5184;51.376;7.148;2024-03-02T08:58:26;2.23;;;1.70;;
10277;SDS011;5184;51.376;7.148;2024-03-02T09:00:53;2.17;;;1.70;;
10277;SDS011;5184;51.376;7.148;2024-03-02T09:03:20;2.33;;;1.90;;
10277;SDS011;5184;51.376;7.148;2024-03-02T09:05:48;3.23;;;2.10;;
10277;SDS011;5184;51.376;7.148;2024-03-02T09:08:15;2.17;;;1.40;;
10277;SDS011;5184;51.376;7.148;2024-03-02T09:10:42;2.73;;;1.80;;
10277;SDS011;5184;51.376;7.148;2024-03-02T09:13:10;2.00;;;1.50;;
10277;SDS011;5184;51.376;7.148;2024-03-02T09:15:37;2.53;;;1.40;;
10277;SDS011;5184;51.376;7.148;2024-03-02T09:18:04;2.90;;;1.60;;
10277;SDS011;5184;51.376;7.148;2024-03-02T09:20:31;2.03;;;1.57;;
10277;SDS011;5184;51.376;7.148;2024-03-02T09:22:58;2.00;;;1.60;;
10277;SDS011;5184;51.376;7.148;2024-03-02T09:25:24;3.67;;;1.50;;
10277;SDS011;5184;51.376;7.148;2024-03-02T09:27:51;2.03;;;1.60;;
10277;SDS011;5184;51.376;7.148;2024-03-02T09:30:18;2.40;;;1.40;;
10277;SDS011;5184;51.376;7.148;2024-03-02T09:32:46;1.80;;;1.20;;
10277;SDS011;5184;51.376;7.148;2024-03-02T09:35:13;2.80;;;1.50;;
10277;SDS011;5184;51.376;7.148;2024-03-02T09:37:40;2.63;;;1.50;;
10277;SDS011;5184;51.376;7.148;2024-03-02T09:40:08;1.57;;;1.40;;
10277;SDS011;5184;51.376;7.148;2024-03-02T09:42:35;3.43;;;1.30;;
10277;SDS011;5184;51.376;7.148;2024-03-02T09:45:03;2.37;;;1.30;;
10277;SDS011;5184;51.376;7.148;2024-03-02T09:47:30;2.67;;;1.20;;
10277;SDS011;5184;51.376;7.148;2024-03-02T09:49:57;1.73;;;1.13;;
10277;SDS011;5184;51.376;7.148;2024-03-02T09:52:24;2.17;;;1.33;;
10277;SDS011;5184;51.376;7.148;2024-03-02T09:54:50;2.13;;;0.97;;
10277;SDS011;5184;51.376;7.148;2024-03-02T09:57:17;1.50;;;1.40;;
10277;SDS011;5184;51.376;7.148;2024-03-02T09:59:43;23.90;;;4.17;;
10277;SDS011;5184;51.376;7.148;2024-03-02T10:02:10;3.00;;;1.60;;
10277;SDS011;5184;51.376;7.148;2024-03-02T10:04:37;2.13;;;1.30;;
10277;SDS011;5184;51.376;7.148;2024-03-02T10:07:10;1.30;;;1.20;;
10277;SDS011;5184;51.376;7.148;2024-03-02T10:09:41;2.83;;;1.60;;
10277;SDS011;5184;51.376;7.148;2024-03-02T10:12:09;1.87;;;1.50;;
10277;SDS011;5184;51.376;7.148;2024-03-02T10:14:37;2.23;;;1.40;;
10277;SDS011;5184;51.376;7.148;2024-03-02T10:17:06;4.80;;;2.00;;
10277;SDS011;5184;51.376;7.148;2024-03-02T10:19:33;2.00;;;1.30;;
10277;SDS011;5184;51.376;7.148;2024-03-02T10:21:58;1.57;;;1.00;;
10277;SDS011;5184;51.376;7.148;2024-03-02T10:24:25;2.20;;;1.10;;
10277;SDS011;5184;51.376;7.148;2024-03-02T10:26:52;1.43;;;1.30;;
10277;SDS011;5184;51.376;7.148;2024-03-02T10:29:19;1.60;;;1.30;;
10277;SDS011;5184;51.376;7.148;2024-03-02T10:31:46;2.83;;;1.50;;
10277;SDS011;5184;51.376;7.148;2024-03-02T10:34:12;4.40;;;1.30;;
10277;SDS011;5184;51.376;7.148;2024-03-02T10:36:41;1.57;;;1.47;;
10277;SDS011;5184;51.376;7.148;2024-03-02T10:39:07;1.77;;;1.40;;
10277;SDS011;5184;51.376;7.148;2024-03-02T10:41:34;3.10;;;1.20;;
10277;SDS011;5184;51.376;7.148;2024-03-02T10:44:01;1.73;;;1.30;;
10277;SDS011;5184;51.376;7.148;2024-03-02T10:46:28;1.27;;;1.10;;
10277;SDS011;5184;51.376;7.148;2024-03-02T10:48:55;2.20;;;1.20;;
10277;SDS011;5184;51.376;7.148;2024-03-02T10:51:21;2.30;;;1.10;;
10277;SDS011;5184;51.376;7.148;2024-03-02T10:53:47;2.90;;;1.17;;
10277;SDS011;5184;51.376;7.148;2024-03-02T10:56:16;2.13;;;1.20;;
10277;SDS011;5184;51.376;7.148;2024-03-02T10:58:41;1.23;;;0.90;;
10277;SDS011;5184;51.376;7.148;2024-03-02T11:01:08;1.27;;;1.00;;
10277;SDS011;5184;51.376;7.148;2024-03-02T11:03:35;1.37;;;1.00;;
10277;SDS011;5184;51.376;7.148;2024-03-02T11:06:03;1.07;;;0.87;;
10277;SDS011;5184;51.376;7.148;2024-03-02T11:08:30;0.70;;;0.70;;
10277;SDS011;5184;51.376;7.148;2024-03-02T11:10:58;1.57;;;1.10;;
10277;SDS011;5184;51.376;7.148;2024-03-02T11:13:31;2.33;;;1.20;;
10277;SDS011;5184;51.376;7.148;2024-03-02T11:15:53;1.83;;;1.00;;
10277;SDS011;5184;51.376;7.148;2024-03-02T11:18:18;1.03;;;0.90;;
10277;SDS011;5184;51.376;7.148;2024-03-02T11:20:46;2.00;;;1.00;;
10277;SDS011;5184;51.376;7.148;2024-03-02T11:23:13;2.07;;;1.27;;
10277;SDS011;5184;51.376;7.148;2024-03-02T11:25:40;1.17;;;0.90;;
10277;SDS011;5184;51.376;7.148;2024-03-02T11:28:07;1.33;;;1.20;;
10277;SDS011;5184;51.376;7.148;2024-03-02T11:30:50;2.10;;;1.10;;
10277;SDS011;5184;51.376;7.148;2024-03-02T11:33:22;1.33;;;0.87;;
10277;SDS011;5184;51.376;7.148;2024-03-02T11:35:45;1.30;;;1.20;;
10277;SDS011;5184;51.376;7.148;2024-03-02T11:38:12;1.00;;;1.00;;
10277;SDS011;5184;51.376;7.148;2024-03-02T11:40:39;2.00;;;1.10;;
10277;SDS011;5184;51.376;7.148;2024-03-02T11:43:06;2.03;;;1.00;;
10277;SDS011;5184;51.376;7.148;2024-03-02T11:45:32;2.03;;;1.10;;
10277;SDS011;5184;51.376;7.148;2024-03-02T11:47:59;0.97;;;0.93;;
10277;SDS011;5184;51.376;7.148;2024-03-02T11:50:29;1.77;;;1.27;;
10277;SDS011;5184;51.376;7.148;2024-03-02T11:52:56;1.33;;;1.20;;
10277;SDS011;5184;51.376;7.148;2024-03-02T11:55:22;2.30;;;1.10;;
10277;SDS011;5184;51.376;7.148;2024-03-02T11:57:49;1.03;;;0.93;;
10277;SDS011;5184;51.376;7.148;2024-03-02T12:00:17;1.37;;;1.07;;
10277;SDS011;5184;51.376;7.148;2024-03-02T12:02:43;1.00;;;0.90;;
10277;SDS011;5184;51.376;7.148;2024-03-02T12:05:10;1.50;;;1.10;;
10277;SDS011;5184;51.376;7.148;2024-03-02T12:07:38;2.97;;;1.30;;
10277;SDS011;5184;51.376;7.148;2024-03-02T12:10:04;1.30;;;1.20;;
10277;SDS011;5184;51.376;7.148;2024-03-02T12:12:32;1.50;;;1.10;;
10277;SDS011;5184;51.376;7.148;2024-03-02T12:14:59;2.03;;;1.10;;
10277;SDS011;5184;51.376;7.148;2024-03-02T12:17:26;1.50;;;1.17;;
10277;SDS011;5184;51.376;7.148;2024-03-02T12:19:53;1.83;;;1.00;;
10277;SDS011;5184;51.376;7.148;2024-03-02T12:22:21;2.50;;;0.90;;
10277;SDS011;5184;51.376;7.148;2024-03-02T12:24:47;1.77;;;1.00;;
10277;SDS011;5184;51.376;7.148;2024-03-02T12:27:14;1.77;;;1.30;;
10277;SDS011;5184;51.376;7.148;2024-03-02T12:29:41;2.13;;;1.20;;
10277;SDS011;5184;51.376;7.148;2024-03-02T12:32:10;1.53;;;1.10;;
10277;SDS011;5184;51.376;7.148;2024-03-02T12:34:37;0.97;;;0.83;;
10277;SDS011;5184;51.376;7.148;2024-03-02T12:37:03;1.20;;;1.10;;
10277;SDS011;5184;51.376;7.148;2024-03-02T12:39:30;1.20;;;1.10;;
10277;SDS011;5184;51.376;7.148;2024-03-02T12:41:58;1.53;;;1.00;;
10277;SDS011;5184;51.376;7.148;2024-03-02T12:44:25;1.90;;;1.10;;
10277;SDS011;5184;51.376;7.148;2024-03-02T12:46:52;1.70;;;0.97;;
10277;SDS011;5184;51.376;7.148;2024-03-02T12:49:21;1.30;;;0.90;;
10277;SDS011;5184;51.376;7.148;2024-03-02T12:51:47;2.27;;;1.00;;
10277;SDS011;5184;51.376;7.148;2024-03-02T12:54:14;1.33;;;0.63;;
10277;SDS011;5184;51.376;7.148;2024-03-02T12:56:41;1.13;;;1.00;;
10277;SDS011;5184;51.376;7.148;2024-03-02T12:59:18;0.70;;;0.70;;
10277;SDS011;5184;51.376;7.148;2024-03-02T13:01:50;1.40;;;0.90;;
10277;SDS011;5184;51.376;7.148;2024-03-02T13:04:16;1.20;;;1.00;;
10277;SDS011;5184;51.376;7.148;2024-03-02T13:06:44;1.33;;;1.13;;
10277;SDS011;5184;51.376;7.148;2024-03-02T13:09:11;0.77;;;0.77;;
10277;SDS011;5184;51.376;7.148;2024-03-02T13:11:39;2.67;;;1.30;;
10277;SDS011;5184;51.376;7.148;2024-03-02T13:14:05;1.70;;;0.80;;
10277;SDS011;5184;51.376;7.148;2024-03-02T13:16:32;0.93;;;0.80;;
10277;SDS011;5184;51.376;7.148;2024-03-02T13:18:58;0.97;;;0.90;;
10277;SDS011;5184;51.376;7.148;2024-03-02T13:21:25;1.00;;;0.97;;
10277;SDS011;5184;51.376;7.148;2024-03-02T13:23:52;1.50;;;0.70;;
10277;SDS011;5184;51.376;7.148;2024-03-02T13:26:19;0.80;;;0.70;;
10277;SDS011;5184;51.376;7.148;2024-03-02T13:28:46;1.57;;;0.70;;
10277;SDS011;5184;51.376;7.148;2024-03-02T13:31:14;0.90;;;0.90;;
10277;SDS011;5184;51.376;7.148;2024-03-02T13:33:41;1.37;;;1.17;;
10277;SDS011;5184;51.376;7.148;2024-03-02T13:36:08;0.73;;;0.73;;
10277;SDS011;5184;51.376;7.148;2024-03-02T13:38:36;3.23;;;1.63;;
10277;SDS011;5184;51.376;7.148;2024-03-02T13:41:03;0.80;;;0.70;;
10277;SDS011;5184;51.376;7.148;2024-03-02T13:43:29;2.07;;;1.00;;
10277;SDS011;5184;51.376;7.148;2024-03-02T13:45:58;1.10;;;0.90;;
10277;SDS011;5184;51.376;7.148;2024-03-02T13:48:25;1.10;;;0.70;;
10277;SDS011;5184;51.376;7.148;2024-03-02T13:50:53;0.80;;;0.80;;
10277;SDS011;5184;51.376;7.148;2024-03-02T13:53:20;1.00;;;0.90;;
10277;SDS011;5184;51.376;7.148;2024-03-02T13:55:48;1.00;;;0.90;;
10277;SDS011;5184;51.376;7.148;2024-03-02T13:58:14;0.60;;;0.60;;
10277;SDS011;5184;51.376;7.148;2024-03-02T14:00:41;3.33;;;1.07;;
10277;SDS011;5184;51.376;7.148;2024-03-02T14:03:07;0.60;;;0.60;;
10277;SDS011;5184;51.376;7.148;2024-03-02T14:05:34;1.00;;;0.90;;
10277;SDS011;5184;51.376;7.148;2024-03-02T14:08:00;1.03;;;0.97;;
10277;SDS011;5184;51.376;7.148;2024-03-02T14:10:28;0.97;;;0.80;;
10277;SDS011;5184;51.376;7.148;2024-03-02T14:12:55;0.87;;;0.87;;
10277;SDS011;5184;51.376;7.148;2024-03-02T14:15:22;1.13;;;0.80;;
10277;SDS011;5184;51.376;7.148;2024-03-02T14:17:48;1.70;;;0.80;;
10277;SDS011;5184;51.376;7.148;2024-03-02T14:20:15;0.70;;;0.70;;
10277;SDS011;5184;51.376;7.148;2024-03-02T14:22:42;0.77;;;0.70;;
10277;SDS011;5184;51.376;7.148;2024-03-02T14:25:08;2.10;;;0.90;;
10277;SDS011;5184;51.376;7.148;2024-03-02T14:27:36;1.50;;;0.70;;
10277;SDS011;5184;51.376;7.148;2024-03-02T14:30:03;0.97;;;0.80;;
10277;SDS011;5184;51.376;7.148;2024-03-02T14:32:30;1.10;;;0.80;;
10277;SDS011;5184;51.376;7.148;2024-03-02T14:34:56;0.60;;;0.60;;
10277;SDS011;5184;51.376;7.148;2024-03-02T14:37:24;0.60;;;0.60;;
10277;SDS011;5184;51.376;7.148;2024-03-02T14:39:51;2.37;;;0.93;;
10277;SDS011;5184;51.376;7.148;2024-03-02T14:42:18;1.53;;;0.80;;
10277;SDS011;5184;51.376;7.148;2024-03-02T14:44:44;0.70;;;0.70;;
10277;SDS011;5184;51.376;7.148;2024-03-02T14:47:11;1.27;;;0.70;;
10277;SDS011;5184;51.376;7.148;2024-03-02T14:49:38;2.00;;;0.70;;
10277;SDS011;5184;51.376;7.148;2024-03-02T14:52:04;1.97;;;0.87;;
10277;SDS011;5184;51.376;7.148;2024-03-02T14:54:31;0.80;;;0.80;;
10277;SDS011;5184;51.376;7.148;2024-03-02T14:56:58;1.00;;;0.90;;
10277;SDS011;5184;51.376;7.148;2024-03-02T14:59:26;1.20;;;1.00;;
10277;SDS011;5184;51.376;7.148;2024-03-02T15:01:53;1.23;;;1.03;;